sensor_id;sensor_type;location;lat;lon;timestamp;temperature;humidity
420;DHT22;42600;54.408;13.016;2022-12-07T00:00:46;2.50;92.70
420;DHT22;42600;54.408;13.016;2022-12-07T00:03:13;2.50;92.70
420;DHT22;42600;54.408;13.016;2022-12-07T00:05:39;2.50;92.70
420;DHT22;42600;54.408;13.016;2022-12-07T00:08:06;2.50;92.70
420;DHT22;42600;54.408;13.016;2022-12-07T00:10:33;2.50;92.70
420;DHT22;42600;54.408;13.016;2022-12-07T00:12:59;2.50;92.70
420;DHT22;42600;54.408;13.016;2022-12-07T00:15:26;2.50;92.70
420;DHT22;42600;54.408;13.016;2022-12-07T00:17:54;2.50;92.70
420;DHT22;42600;54.408;13.016;2022-12-07T00:20:21;2.50;92.70
420;DHT22;42600;54.408;13.016;2022-12-07T00:22:47;2.60;92.70
420;DHT22;42600;54.408;13.016;2022-12-07T00:25:14;2.60;92.70
420;DHT22;42600;54.408;13.016;2022-12-07T00:27:41;2.60;92.70
420;DHT22;42600;54.408;13.016;2022-12-07T00:30:08;2.60;92.70
420;DHT22;42600;54.408;13.016;2022-12-07T00:32:35;2.50;92.70
420;DHT22;42600;54.408;13.016;2022-12-07T00:35:03;2.50;92.70
420;DHT22;42600;54.408;13.016;2022-12-07T00:37:30;2.50;92.70
420;DHT22;42600;54.408;13.016;2022-12-07T00:39:56;2.60;92.70
420;DHT22;42600;54.408;13.016;2022-12-07T00:42:23;2.50;92.70
420;DHT22;42600;54.408;13.016;2022-12-07T00:44:49;2.50;92.70
420;DHT22;42600;54.408;13.016;2022-12-07T00:47:16;2.50;92.70
420;DHT22;42600;54.408;13.016;2022-12-07T00:49:42;2.50;92.70
420;DHT22;42600;54.408;13.016;2022-12-07T00:52:10;2.50;92.70
420;DHT22;42600;54.408;13.016;2022-12-07T00:54:37;2.50;92.70
420;DHT22;42600;54.408;13.016;2022-12-07T00:57:03;2.60;92.70
420;DHT22;42600;54.408;13.016;2022-12-07T00:59:30;2.50;92.70
420;DHT22;42600;54.408;13.016;2022-12-07T01:01:57;2.60;92.70
420;DHT22;42600;54.408;13.016;2022-12-07T01:04:23;2.60;92.70
420;DHT22;42600;54.408;13.016;2022-12-07T01:06:50;2.50;92.70
420;DHT22;42600;54.408;13.016;2022-12-07T01:09:18;2.50;92.70
420;DHT22;42600;54.408;13.016;2022-12-07T01:11:44;2.50;92.70
420;DHT22;42600;54.408;13.016;2022-12-07T01:14:11;2.50;92.70
420;DHT22;42600;54.408;13.016;2022-12-07T01:16:38;2.50;92.70
420;DHT22;42600;54.408;13.016;2022-12-07T01:19:05;2.60;92.70
420;DHT22;42600;54.408;13.016;2022-12-07T01:21:33;2.60;92.70
420;DHT22;42600;54.408;13.016;2022-12-07T01:24:03;2.60;92.70
420;DHT22;42600;54.408;13.016;2022-12-07T01:26:31;2.60;92.70
420;DHT22;42600;54.408;13.016;2022-12-07T01:28:58;2.50;92.70
420;DHT22;42600;54.408;13.016;2022-12-07T01:31:27;2.50;92.70
420;DHT22;42600;54.408;13.016;2022-12-07T01:33:55;2.50;92.70
420;DHT22;42600;54.408;13.016;2022-12-07T01:36:23;2.50;92.70
420;DHT22;42600;54.408;13.016;2022-12-07T01:38:53;2.60;92.70
420;DHT22;42600;54.408;13.016;2022-12-07T01:41:22;2.60;92.70
420;DHT22;42600;54.408;13.016;2022-12-07T01:44:20;2.60;92.70
420;DHT22;42600;54.408;13.016;2022-12-07T01:46:47;2.60;92.70
420;DHT22;42600;54.408;13.016;2022-12-07T01:49:21;2.60;92.70
420;DHT22;42600;54.408;13.016;2022-12-07T01:51:49;2.60;92.70
420;DHT22;42600;54.408;13.016;2022-12-07T01:54:18;2.60;92.70
420;DHT22;42600;54.408;13.016;2022-12-07T01:56:50;2.60;92.70
420;DHT22;42600;54.408;13.016;2022-12-07T01:59:21;2.50;92.70
420;DHT22;42600;54.408;13.016;2022-12-07T02:01:48;2.50;92.70
420;DHT22;42600;54.408;13.016;2022-12-07T02:04:15;2.60;92.70
420;DHT22;42600;54.408;13.016;2022-12-07T02:06:43;2.50;92.70
420;DHT22;42600;54.408;13.016;2022-12-07T02:09:11;2.50;92.70
420;DHT22;42600;54.408;13.016;2022-12-07T02:11:38;2.50;92.70
420;DHT22;42600;54.408;13.016;2022-12-07T02:14:05;2.50;92.70
420;DHT22;42600;54.408;13.016;2022-12-07T02:16:42;2.50;92.70
420;DHT22;42600;54.408;13.016;2022-12-07T02:22:27;2.60;92.70
420;DHT22;42600;54.408;13.016;2022-12-07T02:25:09;2.50;92.70
420;DHT22;42600;54.408;13.016;2022-12-07T02:27:45;2.50;92.70
420;DHT22;42600;54.408;13.016;2022-12-07T02:30:16;2.60;92.70
420;DHT22;42600;54.408;13.016;2022-12-07T02:32:53;2.60;92.70
420;DHT22;42600;54.408;13.016;2022-12-07T02:35:24;2.60;92.70
420;DHT22;42600;54.408;13.016;2022-12-07T02:37:58;2.60;92.70
420;DHT22;42600;54.408;13.016;2022-12-07T02:40:29;2.60;92.70
420;DHT22;42600;54.408;13.016;2022-12-07T02:43:02;2.60;92.70
420;DHT22;42600;54.408;13.016;2022-12-07T02:45:32;2.60;92.70
420;DHT22;42600;54.408;13.016;2022-12-07T02:48:00;2.60;92.70
420;DHT22;42600;54.408;13.016;2022-12-07T02:50:28;2.60;92.70
420;DHT22;42600;54.408;13.016;2022-12-07T02:52:55;2.60;92.70
420;DHT22;42600;54.408;13.016;2022-12-07T02:55:27;2.60;92.70
420;DHT22;42600;54.408;13.016;2022-12-07T02:58:06;2.60;92.70
420;DHT22;42600;54.408;13.016;2022-12-07T03:00:44;2.60;92.70
420;DHT22;42600;54.408;13.016;2022-12-07T03:03:14;2.60;92.70
420;DHT22;42600;54.408;13.016;2022-12-07T03:05:52;2.50;92.70
420;DHT22;42600;54.408;13.016;2022-12-07T03:08:27;2.50;92.70
420;DHT22;42600;54.408;13.016;2022-12-07T03:10:59;2.50;92.70
420;DHT22;42600;54.408;13.016;2022-12-07T03:13:32;2.50;92.70
420;DHT22;42600;54.408;13.016;2022-12-07T03:16:05;2.50;92.70
420;DHT22;42600;54.408;13.016;2022-12-07T03:18:37;2.50;92.70
420;DHT22;42600;54.408;13.016;2022-12-07T03:21:09;2.50;92.70
420;DHT22;42600;54.408;13.016;2022-12-07T03:23:39;2.50;92.70
420;DHT22;42600;54.408;13.016;2022-12-07T03:26:08;2.50;92.70
420;DHT22;42600;54.408;13.016;2022-12-07T03:28:41;2.50;92.70
420;DHT22;42600;54.408;13.016;2022-12-07T03:31:12;2.50;92.70
420;DHT22;42600;54.408;13.016;2022-12-07T03:33:46;2.50;92.70
420;DHT22;42600;54.408;13.016;2022-12-07T03:36:19;2.50;92.70
420;DHT22;42600;54.408;13.016;2022-12-07T03:38:49;2.40;92.70
420;DHT22;42600;54.408;13.016;2022-12-07T03:41:23;2.40;92.70
420;DHT22;42600;54.408;13.016;2022-12-07T03:43:51;2.40;92.70
420;DHT22;42600;54.408;13.016;2022-12-07T03:46:25;2.40;92.70
420;DHT22;42600;54.408;13.016;2022-12-07T03:48:57;2.40;92.70
420;DHT22;42600;54.408;13.016;2022-12-07T03:51:31;2.40;92.70
420;DHT22;42600;54.408;13.016;2022-12-07T03:54:05;2.30;92.70
420;DHT22;42600;54.408;13.016;2022-12-07T03:56:35;2.40;92.70
420;DHT22;42600;54.408;13.016;2022-12-07T03:59:02;2.30;92.70
420;DHT22;42600;54.408;13.016;2022-12-07T04:01:31;2.20;92.70
420;DHT22;42600;54.408;13.016;2022-12-07T04:03:58;2.10;92.70
420;DHT22;42600;54.408;13.016;2022-12-07T04:06:24;2.20;92.70
420;DHT22;42600;54.408;13.016;2022-12-07T04:08:51;2.20;92.70
420;DHT22;42600;54.408;13.016;2022-12-07T04:11:17;2.30;92.70
420;DHT22;42600;54.408;13.016;2022-12-07T04:13:44;2.20;92.70
420;DHT22;42600;54.408;13.016;2022-12-07T04:16:30;2.20;92.70
420;DHT22;42600;54.408;13.016;2022-12-07T04:18:56;2.20;92.70
420;DHT22;42600;54.408;13.016;2022-12-07T04:21:23;2.20;92.70
420;DHT22;42600;54.408;13.016;2022-12-07T04:23:49;2.20;92.70
420;DHT22;42600;54.408;13.016;2022-12-07T04:26:16;2.20;92.70
420;DHT22;42600;54.408;13.016;2022-12-07T04:28:42;2.10;92.70
420;DHT22;42600;54.408;13.016;2022-12-07T04:31:09;2.10;92.70
420;DHT22;42600;54.408;13.016;2022-12-07T04:33:37;2.10;92.70
420;DHT22;42600;54.408;13.016;2022-12-07T04:36:04;2.10;92.70
420;DHT22;42600;54.408;13.016;2022-12-07T04:38:30;2.10;92.70
420;DHT22;42600;54.408;13.016;2022-12-07T04:40:57;2.00;92.70
420;DHT22;42600;54.408;13.016;2022-12-07T04:43:24;2.00;92.70
420;DHT22;42600;54.408;13.016;2022-12-07T04:45:50;2.00;92.70
420;DHT22;42600;54.408;13.016;2022-12-07T04:48:17;2.00;92.70
420;DHT22;42600;54.408;13.016;2022-12-07T04:50:47;2.00;92.70
420;DHT22;42600;54.408;13.016;2022-12-07T04:53:14;2.00;92.70
420;DHT22;42600;54.408;13.016;2022-12-07T04:55:40;2.00;92.70
420;DHT22;42600;54.408;13.016;2022-12-07T04:58:07;2.00;92.70
420;DHT22;42600;54.408;13.016;2022-12-07T05:00:33;2.00;92.70
420;DHT22;42600;54.408;13.016;2022-12-07T05:03:00;2.00;92.70
420;DHT22;42600;54.408;13.016;2022-12-07T05:05:27;2.00;92.70
420;DHT22;42600;54.408;13.016;2022-12-07T05:07:54;2.00;92.70
420;DHT22;42600;54.408;13.016;2022-12-07T05:10:21;2.00;92.70
420;DHT22;42600;54.408;13.016;2022-12-07T05:12:48;2.00;92.70
420;DHT22;42600;54.408;13.016;2022-12-07T05:15:14;2.00;92.70
420;DHT22;42600;54.408;13.016;2022-12-07T05:17:41;2.00;92.70
420;DHT22;42600;54.408;13.016;2022-12-07T05:20:09;2.00;92.70
420;DHT22;42600;54.408;13.016;2022-12-07T05:22:36;2.00;92.70
420;DHT22;42600;54.408;13.016;2022-12-07T05:25:04;2.00;92.70
420;DHT22;42600;54.408;13.016;2022-12-07T05:27:31;2.00;92.70
420;DHT22;42600;54.408;13.016;2022-12-07T05:29:57;2.00;92.70
420;DHT22;42600;54.408;13.016;2022-12-07T05:32:24;2.00;92.70
420;DHT22;42600;54.408;13.016;2022-12-07T05:34:50;2.00;92.70
420;DHT22;42600;54.408;13.016;2022-12-07T05:37:17;2.00;92.70
420;DHT22;42600;54.408;13.016;2022-12-07T05:39:44;2.00;92.70
420;DHT22;42600;54.408;13.016;2022-12-07T05:42:12;2.00;92.70
420;DHT22;42600;54.408;13.016;2022-12-07T05:44:39;2.00;92.70
420;DHT22;42600;54.408;13.016;2022-12-07T05:47:05;2.00;92.70
420;DHT22;42600;54.408;13.016;2022-12-07T05:49:32;2.00;92.70
420;DHT22;42600;54.408;13.016;2022-12-07T05:51:59;2.00;92.70
420;DHT22;42600;54.408;13.016;2022-12-07T05:54:25;2.00;92.70
420;DHT22;42600;54.408;13.016;2022-12-07T05:56:52;2.00;92.70
420;DHT22;42600;54.408;13.016;2022-12-07T05:59:20;1.90;92.70
420;DHT22;42600;54.408;13.016;2022-12-07T06:01:49;1.90;92.70
420;DHT22;42600;54.408;13.016;2022-12-07T06:04:15;1.90;92.70
420;DHT22;42600;54.408;13.016;2022-12-07T06:06:42;1.90;92.70
420;DHT22;42600;54.408;13.016;2022-12-07T06:09:08;1.90;92.70
420;DHT22;42600;54.408;13.016;2022-12-07T06:11:35;1.90;92.70
420;DHT22;42600;54.408;13.016;2022-12-07T06:14:20;1.90;92.70
420;DHT22;42600;54.408;13.016;2022-12-07T06:16:47;1.90;92.70
420;DHT22;42600;54.408;13.016;2022-12-07T06:19:13;1.90;92.70
420;DHT22;42600;54.408;13.016;2022-12-07T06:21:40;2.00;92.70
420;DHT22;42600;54.408;13.016;2022-12-07T06:24:07;2.00;92.70
420;DHT22;42600;54.408;13.016;2022-12-07T06:26:34;2.00;92.70
420;DHT22;42600;54.408;13.016;2022-12-07T06:29:01;2.00;92.70
420;DHT22;42600;54.408;13.016;2022-12-07T06:31:29;2.00;92.70
420;DHT22;42600;54.408;13.016;2022-12-07T06:33:57;2.00;92.70
420;DHT22;42600;54.408;13.016;2022-12-07T06:36:24;2.00;92.70
420;DHT22;42600;54.408;13.016;2022-12-07T06:38:51;2.00;92.70
420;DHT22;42600;54.408;13.016;2022-12-07T06:41:18;2.00;92.70
420;DHT22;42600;54.408;13.016;2022-12-07T06:43:44;2.00;92.70
420;DHT22;42600;54.408;13.016;2022-12-07T06:46:11;2.00;92.70
420;DHT22;42600;54.408;13.016;2022-12-07T06:48:39;2.00;92.70
420;DHT22;42600;54.408;13.016;2022-12-07T06:51:06;2.00;92.70
420;DHT22;42600;54.408;13.016;2022-12-07T06:53:33;2.00;92.70
420;DHT22;42600;54.408;13.016;2022-12-07T06:55:59;2.00;92.70
420;DHT22;42600;54.408;13.016;2022-12-07T06:58:26;2.00;92.70
420;DHT22;42600;54.408;13.016;2022-12-07T07:00:53;2.00;92.70
420;DHT22;42600;54.408;13.016;2022-12-07T07:03:19;2.00;92.70
420;DHT22;42600;54.408;13.016;2022-12-07T07:05:47;2.00;92.70
420;DHT22;42600;54.408;13.016;2022-12-07T07:08:14;2.00;92.70
420;DHT22;42600;54.408;13.016;2022-12-07T07:10:41;2.00;92.70
420;DHT22;42600;54.408;13.016;2022-12-07T07:13:08;2.00;92.70
420;DHT22;42600;54.408;13.016;2022-12-07T07:15:37;2.00;92.70
420;DHT22;42600;54.408;13.016;2022-12-07T07:18:04;2.00;92.70
420;DHT22;42600;54.408;13.016;2022-12-07T07:20:31;2.00;92.70
420;DHT22;42600;54.408;13.016;2022-12-07T07:22:58;2.00;92.70
420;DHT22;42600;54.408;13.016;2022-12-07T07:25:25;2.00;92.70
420;DHT22;42600;54.408;13.016;2022-12-07T07:27:52;2.00;92.70
420;DHT22;42600;54.408;13.016;2022-12-07T07:30:18;2.00;92.70
420;DHT22;42600;54.408;13.016;2022-12-07T07:32:45;2.00;92.70
420;DHT22;42600;54.408;13.016;2022-12-07T07:35:11;2.10;92.70
420;DHT22;42600;54.408;13.016;2022-12-07T07:37:39;2.10;92.70
420;DHT22;42600;54.408;13.016;2022-12-07T07:40:08;2.10;92.70
420;DHT22;42600;54.408;13.016;2022-12-07T07:42:35;2.10;92.70
420;DHT22;42600;54.408;13.016;2022-12-07T07:45:01;2.10;92.70
420;DHT22;42600;54.408;13.016;2022-12-07T07:47:28;2.10;92.70
420;DHT22;42600;54.408;13.016;2022-12-07T07:49:55;2.00;92.70
420;DHT22;42600;54.408;13.016;2022-12-07T07:52:22;2.10;92.70
420;DHT22;42600;54.408;13.016;2022-12-07T07:54:49;2.10;92.70
420;DHT22;42600;54.408;13.016;2022-12-07T07:57:17;2.10;92.70
420;DHT22;42600;54.408;13.016;2022-12-07T07:59:44;2.10;92.70
420;DHT22;42600;54.408;13.016;2022-12-07T08:02:14;2.10;92.70
420;DHT22;42600;54.408;13.016;2022-12-07T08:04:41;2.10;92.70
420;DHT22;42600;54.408;13.016;2022-12-07T08:07:07;2.10;92.70
420;DHT22;42600;54.408;13.016;2022-12-07T08:09:34;2.10;92.70
420;DHT22;42600;54.408;13.016;2022-12-07T08:12:00;2.10;92.70
420;DHT22;42600;54.408;13.016;2022-12-07T08:14:28;2.10;92.70
420;DHT22;42600;54.408;13.016;2022-12-07T08:16:55;2.10;92.70
420;DHT22;42600;54.408;13.016;2022-12-07T08:19:21;2.10;92.70
420;DHT22;42600;54.408;13.016;2022-12-07T08:21:48;2.20;92.70
420;DHT22;42600;54.408;13.016;2022-12-07T08:24:15;2.20;92.70
420;DHT22;42600;54.408;13.016;2022-12-07T08:26:42;2.20;92.70
420;DHT22;42600;54.408;13.016;2022-12-07T08:29:09;2.20;92.70
420;DHT22;42600;54.408;13.016;2022-12-07T08:31:37;2.20;92.70
420;DHT22;42600;54.408;13.016;2022-12-07T08:34:05;2.20;92.70
420;DHT22;42600;54.408;13.016;2022-12-07T08:36:31;2.20;92.70
420;DHT22;42600;54.408;13.016;2022-12-07T08:38:58;2.20;92.70
420;DHT22;42600;54.408;13.016;2022-12-07T08:41:24;2.20;92.70
420;DHT22;42600;54.408;13.016;2022-12-07T08:43:51;2.20;92.70
420;DHT22;42600;54.408;13.016;2022-12-07T08:46:20;2.20;92.70
420;DHT22;42600;54.408;13.016;2022-12-07T08:48:52;2.20;92.70
420;DHT22;42600;54.408;13.016;2022-12-07T08:51:21;2.20;92.70
420;DHT22;42600;54.408;13.016;2022-12-07T08:53:48;2.30;92.70
420;DHT22;42600;54.408;13.016;2022-12-07T08:56:15;2.30;92.70
420;DHT22;42600;54.408;13.016;2022-12-07T08:58:42;2.30;92.70
420;DHT22;42600;54.408;13.016;2022-12-07T09:01:09;2.30;92.70
420;DHT22;42600;54.408;13.016;2022-12-07T09:03:36;2.30;92.70
420;DHT22;42600;54.408;13.016;2022-12-07T09:06:05;2.30;92.70
420;DHT22;42600;54.408;13.016;2022-12-07T09:08:34;2.30;92.70
420;DHT22;42600;54.408;13.016;2022-12-07T09:11:02;2.30;92.70
420;DHT22;42600;54.408;13.016;2022-12-07T09:13:29;2.40;92.70
420;DHT22;42600;54.408;13.016;2022-12-07T09:15:56;2.40;92.70
420;DHT22;42600;54.408;13.016;2022-12-07T09:18:22;2.40;92.70
420;DHT22;42600;54.408;13.016;2022-12-07T09:20:49;2.40;92.70
420;DHT22;42600;54.408;13.016;2022-12-07T09:23:18;2.40;92.70
420;DHT22;42600;54.408;13.016;2022-12-07T09:25:44;2.40;92.70
420;DHT22;42600;54.408;13.016;2022-12-07T09:28:11;2.40;92.70
420;DHT22;42600;54.408;13.016;2022-12-07T09:30:38;2.40;92.70
420;DHT22;42600;54.408;13.016;2022-12-07T09:33:05;2.50;92.70
420;DHT22;42600;54.408;13.016;2022-12-07T09:35:31;2.50;92.70
420;DHT22;42600;54.408;13.016;2022-12-07T09:37:58;2.50;92.70
420;DHT22;42600;54.408;13.016;2022-12-07T09:40:27;2.60;92.70
420;DHT22;42600;54.408;13.016;2022-12-07T09:42:55;2.60;92.70
420;DHT22;42600;54.408;13.016;2022-12-07T09:45:23;2.70;92.70
420;DHT22;42600;54.408;13.016;2022-12-07T09:47:51;2.70;92.70
420;DHT22;42600;54.408;13.016;2022-12-07T09:50:20;2.70;92.70
420;DHT22;42600;54.408;13.016;2022-12-07T09:52:48;2.70;92.70
420;DHT22;42600;54.408;13.016;2022-12-07T09:55:21;2.70;92.70
420;DHT22;42600;54.408;13.016;2022-12-07T09:57:52;2.80;92.70
420;DHT22;42600;54.408;13.016;2022-12-07T10:00:21;2.80;92.70
420;DHT22;42600;54.408;13.016;2022-12-07T10:02:52;2.90;92.70
420;DHT22;42600;54.408;13.016;2022-12-07T10:05:24;2.90;92.70
420;DHT22;42600;54.408;13.016;2022-12-07T10:07:52;2.90;92.70
420;DHT22;42600;54.408;13.016;2022-12-07T10:10:23;3.00;92.70
420;DHT22;42600;54.408;13.016;2022-12-07T10:12:55;3.00;92.70
420;DHT22;42600;54.408;13.016;2022-12-07T10:15:22;3.10;92.70
420;DHT22;42600;54.408;13.016;2022-12-07T10:17:51;3.10;92.70
420;DHT22;42600;54.408;13.016;2022-12-07T10:20:21;3.20;92.70
420;DHT22;42600;54.408;13.016;2022-12-07T10:22:57;3.30;92.70
420;DHT22;42600;54.408;13.016;2022-12-07T10:25:27;3.30;92.70
420;DHT22;42600;54.408;13.016;2022-12-07T10:28:00;3.40;92.70
420;DHT22;42600;54.408;13.016;2022-12-07T10:30:27;3.40;92.70
420;DHT22;42600;54.408;13.016;2022-12-07T10:32:53;3.50;92.70
420;DHT22;42600;54.408;13.016;2022-12-07T10:35:24;3.50;92.70
420;DHT22;42600;54.408;13.016;2022-12-07T10:37:52;3.60;92.70
420;DHT22;42600;54.408;13.016;2022-12-07T10:40:31;3.70;92.70
420;DHT22;42600;54.408;13.016;2022-12-07T10:43:12;3.70;92.70
420;DHT22;42600;54.408;13.016;2022-12-07T10:46:02;3.80;92.70
420;DHT22;42600;54.408;13.016;2022-12-07T10:48:39;3.80;92.70
420;DHT22;42600;54.408;13.016;2022-12-07T10:51:09;3.90;92.70
420;DHT22;42600;54.408;13.016;2022-12-07T10:53:48;3.90;92.70
420;DHT22;42600;54.408;13.016;2022-12-07T10:59:48;4.00;92.70
420;DHT22;42600;54.408;13.016;2022-12-07T11:02:41;4.00;92.70
420;DHT22;42600;54.408;13.016;2022-12-07T11:05:18;4.00;92.70
420;DHT22;42600;54.408;13.016;2022-12-07T11:07:55;4.00;92.70
420;DHT22;42600;54.408;13.016;2022-12-07T11:10:28;3.90;92.70
420;DHT22;42600;54.408;13.016;2022-12-07T11:13:11;3.90;92.70
420;DHT22;42600;54.408;13.016;2022-12-07T11:15:54;3.90;92.70
420;DHT22;42600;54.408;13.016;2022-12-07T11:18:27;3.90;92.70
420;DHT22;42600;54.408;13.016;2022-12-07T11:21:00;3.90;92.70
420;DHT22;42600;54.408;13.016;2022-12-07T11:23:40;3.80;92.70
420;DHT22;42600;54.408;13.016;2022-12-07T11:26:17;3.70;92.70
420;DHT22;42600;54.408;13.016;2022-12-07T11:29:00;3.70;92.70
420;DHT22;42600;54.408;13.016;2022-12-07T11:31:38;3.60;92.70
420;DHT22;42600;54.408;13.016;2022-12-07T11:34:16;3.60;92.70
420;DHT22;42600;54.408;13.016;2022-12-07T11:36:48;3.50;92.70
420;DHT22;42600;54.408;13.016;2022-12-07T11:39:24;3.50;92.70
420;DHT22;42600;54.408;13.016;2022-12-07T11:41:55;3.50;92.70
420;DHT22;42600;54.408;13.016;2022-12-07T11:44:27;3.50;92.70
420;DHT22;42600;54.408;13.016;2022-12-07T11:47:05;3.50;92.70
420;DHT22;42600;54.408;13.016;2022-12-07T11:49:42;3.50;92.70
420;DHT22;42600;54.408;13.016;2022-12-07T11:52:18;3.60;92.70
420;DHT22;42600;54.408;13.016;2022-12-07T11:54:49;3.50;92.70
420;DHT22;42600;54.408;13.016;2022-12-07T11:57:22;3.50;92.70
420;DHT22;42600;54.408;13.016;2022-12-07T11:59:52;3.50;92.70
420;DHT22;42600;54.408;13.016;2022-12-07T12:02:28;3.50;92.70
420;DHT22;42600;54.408;13.016;2022-12-07T12:05:02;3.50;92.70
420;DHT22;42600;54.408;13.016;2022-12-07T12:07:32;3.50;92.70
420;DHT22;42600;54.408;13.016;2022-12-07T12:10:02;3.50;92.70
420;DHT22;42600;54.408;13.016;2022-12-07T12:12:51;3.50;92.70
420;DHT22;42600;54.408;13.016;2022-12-07T12:15:28;3.50;92.70
420;DHT22;42600;54.408;13.016;2022-12-07T12:18:15;3.40;92.70
420;DHT22;42600;54.408;13.016;2022-12-07T12:20:48;3.40;92.70
420;DHT22;42600;54.408;13.016;2022-12-07T12:23:19;3.40;92.70
420;DHT22;42600;54.408;13.016;2022-12-07T12:25:48;3.40;92.70
420;DHT22;42600;54.408;13.016;2022-12-07T12:28:22;3.40;92.70
420;DHT22;42600;54.408;13.016;2022-12-07T12:31:05;3.40;92.70
420;DHT22;42600;54.408;13.016;2022-12-07T12:33:35;3.50;92.70
420;DHT22;42600;54.408;13.016;2022-12-07T12:36:24;3.40;92.70
420;DHT22;42600;54.408;13.016;2022-12-07T12:39:08;3.50;92.70
420;DHT22;42600;54.408;13.016;2022-12-07T12:41:56;3.50;92.70
420;DHT22;42600;54.408;13.016;2022-12-07T12:44:40;3.50;92.70
420;DHT22;42600;54.408;13.016;2022-12-07T12:47:40;3.50;92.70
420;DHT22;42600;54.408;13.016;2022-12-07T12:50:20;3.60;92.70
420;DHT22;42600;54.408;13.016;2022-12-07T12:53:16;3.50;92.70
420;DHT22;42600;54.408;13.016;2022-12-07T12:56:09;3.50;92.70
420;DHT22;42600;54.408;13.016;2022-12-07T12:58:42;3.40;92.70
420;DHT22;42600;54.408;13.016;2022-12-07T13:01:43;3.40;92.70
420;DHT22;42600;54.408;13.016;2022-12-07T13:04:49;3.50;92.70
420;DHT22;42600;54.408;13.016;2022-12-07T13:07:54;3.50;92.70
420;DHT22;42600;54.408;13.016;2022-12-07T13:10:27;3.40;92.70
420;DHT22;42600;54.408;13.016;2022-12-07T13:12:57;3.40;92.70
420;DHT22;42600;54.408;13.016;2022-12-07T13:15:33;3.40;92.70
420;DHT22;42600;54.408;13.016;2022-12-07T13:18:35;3.40;92.70
420;DHT22;42600;54.408;13.016;2022-12-07T13:21:02;3.40;92.70
420;DHT22;42600;54.408;13.016;2022-12-07T13:23:58;3.40;92.70
420;DHT22;42600;54.408;13.016;2022-12-07T13:26:35;3.40;92.70
420;DHT22;42600;54.408;13.016;2022-12-07T13:29:09;3.40;92.70
420;DHT22;42600;54.408;13.016;2022-12-07T13:31:39;3.40;92.70
420;DHT22;42600;54.408;13.016;2022-12-07T13:34:28;3.40;92.70
420;DHT22;42600;54.408;13.016;2022-12-07T13:36:56;3.40;92.70
420;DHT22;42600;54.408;13.016;2022-12-07T13:39:25;3.40;92.70
420;DHT22;42600;54.408;13.016;2022-12-07T13:41:53;3.50;92.70
420;DHT22;42600;54.408;13.016;2022-12-07T13:44:21;3.50;92.70
420;DHT22;42600;54.408;13.016;2022-12-07T13:46:52;3.50;92.70
420;DHT22;42600;54.408;13.016;2022-12-07T13:49:23;3.50;92.70
420;DHT22;42600;54.408;13.016;2022-12-07T13:51:50;3.50;92.70
420;DHT22;42600;54.408;13.016;2022-12-07T13:54:17;3.50;92.70
420;DHT22;42600;54.408;13.016;2022-12-07T13:56:48;3.40;92.70
420;DHT22;42600;54.408;13.016;2022-12-07T13:59:18;3.40;92.70
420;DHT22;42600;54.408;13.016;2022-12-07T14:01:46;3.40;92.70
420;DHT22;42600;54.408;13.016;2022-12-07T14:04:31;3.40;92.70
420;DHT22;42600;54.408;13.016;2022-12-07T14:06:58;3.40;92.70
420;DHT22;42600;54.408;13.016;2022-12-07T14:09:27;3.40;92.70
420;DHT22;42600;54.408;13.016;2022-12-07T14:11:57;3.30;92.70
420;DHT22;42600;54.408;13.016;2022-12-07T14:14:26;3.30;92.70
420;DHT22;42600;54.408;13.016;2022-12-07T14:17:00;3.30;92.70
420;DHT22;42600;54.408;13.016;2022-12-07T14:19:48;3.20;92.70
420;DHT22;42600;54.408;13.016;2022-12-07T14:22:25;3.10;92.70
420;DHT22;42600;54.408;13.016;2022-12-07T14:25:11;3.10;92.70
420;DHT22;42600;54.408;13.016;2022-12-07T14:27:53;3.10;92.70
420;DHT22;42600;54.408;13.016;2022-12-07T14:30:23;3.10;92.70
420;DHT22;42600;54.408;13.016;2022-12-07T14:32:53;3.00;92.70
420;DHT22;42600;54.408;13.016;2022-12-07T14:35:20;3.00;92.70
420;DHT22;42600;54.408;13.016;2022-12-07T14:37:48;3.00;92.70
420;DHT22;42600;54.408;13.016;2022-12-07T14:40:17;3.00;92.70
420;DHT22;42600;54.408;13.016;2022-12-07T14:42:46;2.90;92.70
420;DHT22;42600;54.408;13.016;2022-12-07T14:45:15;2.90;92.70
420;DHT22;42600;54.408;13.016;2022-12-07T14:47:43;2.90;92.70
420;DHT22;42600;54.408;13.016;2022-12-07T14:50:11;2.90;92.70
420;DHT22;42600;54.408;13.016;2022-12-07T14:52:39;2.80;92.70
420;DHT22;42600;54.408;13.016;2022-12-07T14:55:13;2.80;92.70
420;DHT22;42600;54.408;13.016;2022-12-07T14:57:40;2.80;92.70
420;DHT22;42600;54.408;13.016;2022-12-07T15:00:13;2.80;92.70
420;DHT22;42600;54.408;13.016;2022-12-07T15:02:40;2.80;92.70
420;DHT22;42600;54.408;13.016;2022-12-07T15:05:07;2.80;92.70
420;DHT22;42600;54.408;13.016;2022-12-07T15:07:34;2.80;92.70
420;DHT22;42600;54.408;13.016;2022-12-07T15:10:00;2.70;92.70
420;DHT22;42600;54.408;13.016;2022-12-07T15:12:27;2.70;92.70
420;DHT22;42600;54.408;13.016;2022-12-07T15:14:54;2.70;92.70
420;DHT22;42600;54.408;13.016;2022-12-07T15:17:21;2.70;92.70
420;DHT22;42600;54.408;13.016;2022-12-07T15:19:48;2.70;92.70
420;DHT22;42600;54.408;13.016;2022-12-07T15:22:15;2.60;92.70
420;DHT22;42600;54.408;13.016;2022-12-07T15:24:41;2.70;92.70
420;DHT22;42600;54.408;13.016;2022-12-07T15:27:08;2.60;92.70
420;DHT22;42600;54.408;13.016;2022-12-07T15:29:34;2.60;92.70
420;DHT22;42600;54.408;13.016;2022-12-07T15:32:01;2.60;92.70
420;DHT22;42600;54.408;13.016;2022-12-07T15:34:29;2.60;92.70
420;DHT22;42600;54.408;13.016;2022-12-07T15:36:57;2.60;92.70
420;DHT22;42600;54.408;13.016;2022-12-07T15:39:23;2.50;92.70
420;DHT22;42600;54.408;13.016;2022-12-07T15:41:50;2.50;92.70
420;DHT22;42600;54.408;13.016;2022-12-07T15:44:17;2.50;92.70
420;DHT22;42600;54.408;13.016;2022-12-07T15:47:02;2.50;92.70
420;DHT22;42600;54.408;13.016;2022-12-07T15:49:31;2.50;92.70
420;DHT22;42600;54.408;13.016;2022-12-07T15:51:58;2.50;92.70
420;DHT22;42600;54.408;13.016;2022-12-07T15:54:26;2.40;92.70
420;DHT22;42600;54.408;13.016;2022-12-07T15:56:53;2.50;92.70
420;DHT22;42600;54.408;13.016;2022-12-07T15:59:19;2.50;92.70
420;DHT22;42600;54.408;13.016;2022-12-07T16:01:46;2.50;92.70
420;DHT22;42600;54.408;13.016;2022-12-07T16:04:13;2.50;92.70
420;DHT22;42600;54.408;13.016;2022-12-07T16:06:41;2.50;92.70
420;DHT22;42600;54.408;13.016;2022-12-07T16:09:07;2.50;92.70
420;DHT22;42600;54.408;13.016;2022-12-07T16:11:34;2.50;92.70
420;DHT22;42600;54.408;13.016;2022-12-07T16:14:01;2.50;92.70
420;DHT22;42600;54.408;13.016;2022-12-07T16:16:27;2.40;92.70
420;DHT22;42600;54.408;13.016;2022-12-07T16:18:54;2.40;92.70
420;DHT22;42600;54.408;13.016;2022-12-07T16:21:21;2.50;92.70
420;DHT22;42600;54.408;13.016;2022-12-07T16:23:49;2.50;92.70
420;DHT22;42600;54.408;13.016;2022-12-07T16:26:16;2.50;92.70
420;DHT22;42600;54.408;13.016;2022-12-07T16:28:44;2.50;92.70